createdAt,value
2017-10-18T00:00:12.781Z,11.21
2017-10-18T00:02:41.123Z,11.26
2017-10-18T00:05:09.439Z,11.25
2017-10-18T00:07:37.785Z,11.30
2017-10-18T00:10:06.882Z,11.32
2017-10-18T00:12:36.016Z,11.37
2017-10-18T00:15:04.372Z,11.37
2017-10-18T00:17:32.739Z,11.37
2017-10-18T00:20:01.835Z,11.30
2017-10-18T00:22:30.965Z,11.28
2017-10-18T00:24:59.280Z,11.29
2017-10-18T00:27:27.646Z,11.21
2017-10-18T00:29:55.987Z,11.21
2017-10-18T00:32:24.330Z,11.23
2017-10-18T00:34:52.645Z,11.19
2017-10-18T00:37:20.986Z,11.20
2017-10-18T00:39:50.111Z,11.29
2017-10-18T00:42:18.447Z,11.27
2017-10-18T00:44:46.761Z,11.24
2017-10-18T00:47:15.107Z,11.16
2017-10-18T00:49:43.432Z,11.11
2017-10-18T00:52:11.755Z,11.08
2017-10-18T00:54:40.093Z,11.14
2017-10-18T00:57:08.423Z,11.15
2017-10-18T00:59:36.752Z,11.15
2017-10-18T01:02:05.096Z,11.13
2017-10-18T01:04:34.192Z,11.14
2017-10-18T01:07:03.311Z,11.07
2017-10-18T01:09:31.644Z,10.87
2017-10-18T01:11:59.981Z,10.88
2017-10-18T01:14:28.333Z,10.83
2017-10-18T01:16:56.654Z,10.71
2017-10-18T01:19:24.977Z,10.70
2017-10-18T01:21:54.075Z,10.73
2017-10-18T01:24:23.191Z,10.67
2017-10-18T01:26:51.686Z,10.69
2017-10-18T01:29:20.025Z,10.66
2017-10-18T01:31:48.492Z,10.73
2017-10-18T01:34:16.821Z,10.73
2017-10-18T01:36:45.152Z,10.71
2017-10-18T01:39:13.517Z,10.63
2017-10-18T01:41:41.867Z,10.58
2017-10-18T01:44:10.251Z,10.63
2017-10-18T01:46:38.595Z,10.64
2017-10-18T01:49:07.070Z,10.69
2017-10-18T01:51:35.417Z,10.67
2017-10-18T01:54:03.774Z,10.70
2017-10-18T01:56:32.136Z,10.68
2017-10-18T01:59:00.452Z,10.64
2017-10-18T02:01:28.858Z,10.66
2017-10-18T02:03:57.232Z,10.69
2017-10-18T02:06:26.326Z,10.76
2017-10-18T02:08:55.526Z,10.72
2017-10-18T02:11:24.622Z,10.65
2017-10-18T02:13:53.006Z,10.63
2017-10-18T02:16:21.379Z,10.61
2017-10-18T02:18:49.750Z,10.61
2017-10-18T02:21:18.855Z,10.41
2017-10-18T02:23:47.949Z,10.51
2017-10-18T02:26:17.042Z,10.50
2017-10-18T02:28:45.398Z,10.39
2017-10-18T02:31:14.509Z,10.33
2017-10-18T02:33:43.624Z,10.24
2017-10-18T02:36:11.965Z,10.27
2017-10-18T02:38:40.290Z,10.24
2017-10-18T02:41:08.656Z,10.26
2017-10-18T02:43:37.025Z,10.23
2017-10-18T02:46:06.202Z,10.23
2017-10-18T02:48:35.305Z,10.21
2017-10-18T02:51:04.435Z,10.25
2017-10-18T02:53:32.753Z,10.25
2017-10-18T02:56:01.069Z,10.27
2017-10-18T02:58:29.419Z,10.31
2017-10-18T03:00:57.762Z,10.28
2017-10-18T03:03:26.202Z,10.30
2017-10-18T03:05:55.281Z,10.27
2017-10-18T03:08:23.605Z,10.16
2017-10-18T03:10:51.936Z,10.13
2017-10-18T03:13:20.282Z,10.14
2017-10-18T03:15:48.617Z,10.19
2017-10-18T03:18:16.960Z,10.24
2017-10-18T03:20:45.296Z,10.13
2017-10-18T03:23:13.633Z,10.14
2017-10-18T03:25:42.736Z,10.24
2017-10-18T03:28:11.089Z,10.34
2017-10-18T03:30:39.426Z,10.41
2017-10-18T03:33:07.756Z,10.45
2017-10-18T03:35:36.098Z,10.52
2017-10-18T03:38:04.456Z,10.53
2017-10-18T03:40:32.762Z,10.63
2017-10-18T03:43:01.098Z,10.61
2017-10-18T03:45:29.441Z,10.49
2017-10-18T03:47:57.862Z,10.47
2017-10-18T03:50:26.185Z,10.51
2017-10-18T03:52:54.518Z,10.61
2017-10-18T03:55:22.854Z,10.66
2017-10-18T03:57:51.189Z,10.57
2017-10-18T04:00:19.513Z,10.55
2017-10-18T04:02:47.857Z,10.61
2017-10-18T04:05:16.163Z,10.63
2017-10-18T04:07:44.466Z,10.62
2017-10-18T04:10:13.568Z,10.60
2017-10-18T04:12:41.899Z,10.48
2017-10-18T04:15:10.230Z,10.41
2017-10-18T04:17:38.575Z,10.35
2017-10-18T04:20:06.897Z,10.33
2017-10-18T04:22:35.217Z,10.34
2017-10-18T04:25:03.566Z,10.45
2017-10-18T04:27:31.866Z,10.44
2017-10-18T04:30:00.198Z,10.39
2017-10-18T04:32:28.518Z,10.48
2017-10-18T04:34:56.845Z,10.47
2017-10-18T04:37:25.149Z,10.46
2017-10-18T04:39:53.463Z,10.56
2017-10-18T04:42:21.785Z,10.65
2017-10-18T04:44:50.117Z,10.65
2017-10-18T04:47:18.657Z,10.64
2017-10-18T04:49:46.977Z,10.56
2017-10-18T04:52:15.280Z,10.52
2017-10-18T04:54:44.380Z,10.51
2017-10-18T04:57:12.706Z,10.44
2017-10-18T04:59:41.097Z,10.62
2017-10-18T05:02:09.433Z,10.69
2017-10-18T05:04:37.793Z,10.65
2017-10-18T05:07:06.868Z,10.70
2017-10-18T05:09:35.191Z,10.50
2017-10-18T05:12:03.506Z,10.50
2017-10-18T05:14:31.818Z,10.52
2017-10-18T05:17:00.877Z,10.53
2017-10-18T05:19:29.192Z,10.45
2017-10-18T05:21:58.265Z,10.47
2017-10-18T05:24:26.589Z,10.50
2017-10-18T05:26:54.902Z,10.60
2017-10-18T05:29:23.229Z,10.68
2017-10-18T05:31:51.533Z,10.76
2017-10-18T05:34:19.849Z,10.62
2017-10-18T05:36:48.159Z,10.57
2017-10-18T05:39:16.453Z,10.60
2017-10-18T05:41:44.765Z,10.58
2017-10-18T05:44:13.071Z,10.72
2017-10-18T05:46:42.149Z,10.80
2017-10-18T05:49:10.457Z,10.80
2017-10-18T05:51:38.768Z,10.84
2017-10-18T05:54:07.896Z,10.96
2017-10-18T05:56:36.209Z,11.03
2017-10-18T05:59:04.509Z,10.92
2017-10-18T06:01:32.812Z,10.86
2017-10-18T06:04:01.121Z,10.86
2017-10-18T06:06:30.200Z,11.05
2017-10-18T06:08:58.503Z,11.08
2017-10-18T06:11:26.824Z,11.16
2017-10-18T06:13:55.132Z,11.06
2017-10-18T06:16:23.452Z,10.90
2017-10-18T06:18:51.749Z,10.87
2017-10-18T06:21:20.060Z,10.98
2017-10-18T06:23:48.356Z,11.07
2017-10-18T06:26:17.433Z,11.18
2017-10-18T06:28:45.735Z,11.07
2017-10-18T06:31:14.821Z,11.14
2017-10-18T06:33:43.885Z,11.23
2017-10-18T06:36:12.209Z,11.26
2017-10-18T06:38:41.273Z,11.28
2017-10-18T06:41:09.585Z,11.39
2017-10-18T06:43:37.886Z,11.49
2017-10-18T06:46:06.205Z,11.58
2017-10-18T06:48:34.509Z,11.74
2017-10-18T06:51:03.591Z,11.72
2017-10-18T06:53:32.683Z,11.67
2017-10-18T06:56:00.994Z,11.73
2017-10-18T06:58:29.309Z,11.72
2017-10-18T07:00:57.623Z,11.89
2017-10-18T07:03:26.694Z,12.05
2017-10-18T07:05:55.030Z,12.08
2017-10-18T07:08:23.328Z,12.20
2017-10-18T07:10:51.637Z,12.28
2017-10-18T07:13:19.945Z,12.24
2017-10-18T07:15:48.243Z,12.32
2017-10-18T07:18:16.594Z,12.44
2017-10-18T07:20:45.662Z,12.42
2017-10-18T07:23:13.978Z,12.50
2017-10-18T07:25:42.286Z,12.63
2017-10-18T07:28:10.602Z,12.80
2017-10-18T07:30:39.669Z,12.96
2017-10-18T07:33:07.978Z,13.00
2017-10-18T07:35:37.056Z,13.15
2017-10-18T07:38:05.373Z,13.28
2017-10-18T07:40:33.681Z,13.48
2017-10-18T07:43:02.003Z,13.53
2017-10-18T07:45:31.107Z,13.62
2017-10-18T07:48:00.204Z,13.66
2017-10-18T07:50:28.530Z,14.27
2017-10-18T07:52:56.841Z,14.24
2017-10-18T07:55:25.145Z,14.44
2017-10-18T07:57:54.221Z,14.37
2017-10-18T08:00:23.306Z,14.53
2017-10-18T08:02:51.617Z,14.31
2017-10-18T08:05:19.927Z,14.27
2017-10-18T08:07:48.236Z,14.14
2017-10-18T08:10:16.542Z,14.28
2017-10-18T08:12:45.625Z,14.34
2017-10-18T08:15:14.710Z,14.35
2017-10-18T08:17:43.026Z,14.73
2017-10-18T08:20:11.333Z,14.64
2017-10-18T08:22:39.655Z,14.64
2017-10-18T08:25:08.729Z,14.78
2017-10-18T08:27:37.044Z,14.65
2017-10-18T08:30:05.346Z,15.10
2017-10-18T08:32:33.658Z,15.34
2017-10-18T08:35:01.961Z,15.58
2017-10-18T08:37:31.033Z,15.58
2017-10-18T08:39:59.344Z,15.28
2017-10-18T08:42:27.661Z,15.07
2017-10-18T08:44:55.961Z,14.98
2017-10-18T08:47:24.281Z,14.83
2017-10-18T08:49:52.593Z,14.90
2017-10-18T08:52:20.930Z,14.90
2017-10-18T08:54:49.233Z,15.22
2017-10-18T08:57:17.633Z,14.90
2017-10-18T08:59:45.935Z,14.70
2017-10-18T09:02:14.250Z,14.62
2017-10-18T09:04:42.571Z,14.83
2017-10-18T09:07:10.893Z,14.73
2017-10-18T09:09:39.194Z,15.52
2017-10-18T09:12:07.512Z,15.72
2017-10-18T09:14:35.813Z,15.71
2017-10-18T09:17:04.944Z,15.68
2017-10-18T09:19:33.251Z,15.77
2017-10-18T09:22:16.445Z,15.63
2017-10-18T09:24:44.744Z,16.05
2017-10-18T09:27:13.051Z,15.85
2017-10-18T09:29:41.361Z,16.00
2017-10-18T09:32:09.665Z,16.04
2017-10-18T09:34:37.976Z,16.45
2017-10-18T09:37:06.282Z,15.79
2017-10-18T09:39:35.381Z,15.94
2017-10-18T09:42:04.445Z,15.56
2017-10-18T09:44:32.754Z,15.63
2017-10-18T09:47:01.832Z,15.53
2017-10-18T09:49:30.910Z,15.97
2017-10-18T09:51:59.216Z,16.22
2017-10-18T09:54:27.546Z,16.24
2017-10-18T09:56:56.618Z,16.18
2017-10-18T09:59:24.936Z,15.98
2017-10-18T10:01:53.238Z,16.12
2017-10-18T10:04:22.329Z,15.90
2017-10-18T10:06:51.400Z,16.07
2017-10-18T10:09:19.721Z,16.24
2017-10-18T10:11:48.029Z,16.40
2017-10-18T10:14:16.345Z,16.24
2017-10-18T10:16:44.646Z,16.69
2017-10-18T10:19:13.726Z,16.23
2017-10-18T10:21:42.806Z,15.98
2017-10-18T10:24:11.137Z,15.84
2017-10-18T10:26:39.457Z,16.07
2017-10-18T10:29:07.774Z,16.50
2017-10-18T10:31:36.077Z,16.19
2017-10-18T10:34:04.401Z,16.24
2017-10-18T10:36:32.709Z,15.85
2017-10-18T10:39:01.022Z,16.31
2017-10-18T10:41:29.321Z,16.28
2017-10-18T10:43:57.629Z,16.40
2017-10-18T10:46:25.938Z,16.69
2017-10-18T10:48:54.254Z,16.31
2017-10-18T10:51:22.557Z,16.03
2017-10-18T10:53:50.964Z,15.81
2017-10-18T10:56:19.266Z,16.04
2017-10-18T10:58:47.578Z,16.47
2017-10-18T11:01:15.885Z,16.82
2017-10-18T11:03:44.209Z,16.55
2017-10-18T11:06:12.521Z,16.81
2017-10-18T11:08:41.605Z,17.48
2017-10-18T11:11:10.682Z,17.64
2017-10-18T11:13:39.002Z,17.99
2017-10-18T11:16:07.302Z,18.04
2017-10-18T11:18:35.619Z,17.81
2017-10-18T11:21:03.921Z,17.44
2017-10-18T11:23:33.001Z,17.36
2017-10-18T11:26:01.302Z,17.85
2017-10-18T11:28:29.625Z,18.07
2017-10-18T11:30:57.929Z,17.74
2017-10-18T11:33:26.238Z,18.03
2017-10-18T11:35:54.540Z,17.64
2017-10-18T11:38:22.849Z,17.82
2017-10-18T11:40:51.149Z,18.07
2017-10-18T11:43:20.232Z,18.36
2017-10-18T11:45:48.532Z,18.49
2017-10-18T11:48:17.596Z,18.17
2017-10-18T11:50:45.910Z,17.96
2017-10-18T11:53:14.214Z,18.07
2017-10-18T11:55:42.522Z,18.59
2017-10-18T11:58:10.844Z,18.81
2017-10-18T12:00:39.161Z,18.84
2017-10-18T12:03:07.470Z,18.67
2017-10-18T12:05:35.798Z,18.56
2017-10-18T12:08:04.105Z,18.41
2017-10-18T12:10:32.429Z,18.02
2017-10-18T12:13:00.733Z,17.98
2017-10-18T12:15:29.049Z,17.81
2017-10-18T12:17:57.378Z,17.86
2017-10-18T12:20:25.689Z,17.93
2017-10-18T12:22:53.997Z,18.25
2017-10-18T12:25:23.087Z,18.25
2017-10-18T12:27:51.394Z,18.25
2017-10-18T12:30:19.744Z,18.34
2017-10-18T12:32:48.812Z,18.35
2017-10-18T12:35:17.125Z,18.22
2017-10-18T12:37:46.192Z,18.09
2017-10-18T12:40:14.513Z,17.77
2017-10-18T12:42:42.816Z,17.93
2017-10-18T12:45:11.163Z,18.15
2017-10-18T12:47:39.481Z,17.93
2017-10-18T12:50:07.797Z,17.99
2017-10-18T12:52:36.874Z,18.19
2017-10-18T12:55:05.217Z,17.95
2017-10-18T12:57:33.525Z,17.82
2017-10-18T13:00:01.839Z,18.08
2017-10-18T13:02:30.157Z,18.09
2017-10-18T13:04:58.470Z,18.24
2017-10-18T13:07:27.550Z,18.44
2017-10-18T13:09:55.867Z,18.57
2017-10-18T13:12:24.946Z,18.65
2017-10-18T13:14:54.033Z,18.65
2017-10-18T13:17:22.349Z,18.82
2017-10-18T13:19:50.665Z,18.95
2017-10-18T13:22:18.965Z,18.71
2017-10-18T13:24:47.286Z,18.65
2017-10-18T13:27:15.590Z,18.84
2017-10-18T13:29:43.932Z,18.83
2017-10-18T13:32:12.233Z,18.93
2017-10-18T13:34:40.545Z,18.83
2017-10-18T13:37:08.861Z,19.07
2017-10-18T13:39:37.173Z,19.21
2017-10-18T13:42:05.477Z,19.23
2017-10-18T13:44:33.785Z,19.29
2017-10-18T13:47:02.854Z,19.01
2017-10-18T13:49:31.179Z,18.88
2017-10-18T13:51:59.477Z,19.03
2017-10-18T13:54:27.835Z,18.93
2017-10-18T13:56:56.141Z,19.06
2017-10-18T13:59:24.449Z,19.11
2017-10-18T14:01:52.761Z,19.12
2017-10-18T14:04:21.146Z,19.22
2017-10-18T14:06:49.445Z,19.34
2017-10-18T14:09:17.745Z,19.49
2017-10-18T14:11:46.068Z,19.50
2017-10-18T14:14:14.373Z,19.70
2017-10-18T14:16:42.685Z,19.87
2017-10-18T14:19:10.994Z,19.90
2017-10-18T14:21:39.304Z,19.83
2017-10-18T14:24:07.610Z,19.57
2017-10-18T14:26:35.926Z,19.76
2017-10-18T14:29:04.226Z,19.66
2017-10-18T14:31:32.536Z,19.64
2017-10-18T14:34:00.848Z,19.76
2017-10-18T14:36:29.929Z,19.58
2017-10-18T14:38:58.997Z,19.42
2017-10-18T14:41:27.322Z,19.41
2017-10-18T14:43:55.629Z,19.21
2017-10-18T14:46:23.954Z,19.15
2017-10-18T14:48:53.026Z,19.04
2017-10-18T14:51:21.353Z,19.01
2017-10-18T14:53:49.661Z,18.93
2017-10-18T14:56:18.738Z,19.00
2017-10-18T14:58:47.036Z,18.91
2017-10-18T15:01:15.344Z,18.90
2017-10-18T15:03:43.651Z,18.86
2017-10-18T15:06:11.962Z,18.68
2017-10-18T15:08:40.274Z,18.69
2017-10-18T15:11:08.601Z,18.69
2017-10-18T15:13:36.904Z,18.69
2017-10-18T15:16:05.224Z,18.61
2017-10-18T15:18:34.297Z,18.53
2017-10-18T15:21:02.642Z,18.45
2017-10-18T15:23:30.953Z,18.43
2017-10-18T15:25:59.271Z,18.40
2017-10-18T15:28:27.577Z,18.37
2017-10-18T15:30:55.885Z,18.26
2017-10-18T15:33:24.193Z,18.19
2017-10-18T15:35:52.526Z,18.08
2017-10-18T15:38:20.839Z,17.98
2017-10-18T15:40:49.926Z,17.89
2017-10-18T15:43:18.993Z,17.78
2017-10-18T15:45:48.163Z,17.66
2017-10-18T15:48:17.656Z,17.57
2017-10-18T15:50:45.960Z,17.46
2017-10-18T15:53:14.262Z,17.31
2017-10-18T15:55:42.586Z,17.21
2017-10-18T15:58:10.887Z,17.15
2017-10-18T16:00:39.205Z,16.99
2017-10-18T16:03:07.525Z,16.85
2017-10-18T16:05:35.841Z,16.83
2017-10-18T16:08:04.156Z,16.83
2017-10-18T16:10:32.477Z,16.78
2017-10-18T16:13:00.780Z,16.70
2017-10-18T16:15:29.098Z,16.55
2017-10-18T16:17:57.397Z,16.42
2017-10-18T16:20:25.709Z,16.26
2017-10-18T16:22:54.015Z,16.11
2017-10-18T16:25:23.124Z,15.97
2017-10-18T16:27:51.422Z,15.87
2017-10-18T16:30:19.725Z,15.86
2017-10-18T16:32:48.045Z,15.87
2017-10-18T16:35:16.357Z,15.87
2017-10-18T16:37:44.677Z,15.85
2017-10-18T16:40:12.985Z,15.82
2017-10-18T16:42:41.305Z,15.71
2017-10-18T16:45:09.622Z,15.63
2017-10-18T16:47:38.701Z,15.52
2017-10-18T16:50:07.009Z,15.47
2017-10-18T16:52:35.333Z,15.49
2017-10-18T16:55:03.647Z,15.50
2017-10-18T16:57:32.726Z,15.44
2017-10-18T17:00:01.950Z,15.41
2017-10-18T17:02:31.035Z,15.30
2017-10-18T17:05:00.117Z,15.23
2017-10-18T17:07:28.429Z,15.22
2017-10-18T17:09:56.737Z,15.26
2017-10-18T17:12:25.045Z,15.20
2017-10-18T17:14:53.353Z,15.14
2017-10-18T17:17:21.689Z,15.12
2017-10-18T17:19:49.996Z,15.04
2017-10-18T17:22:19.089Z,14.99
2017-10-18T17:24:48.161Z,14.89
2017-10-18T17:27:16.481Z,14.79
2017-10-18T17:29:44.786Z,14.70
2017-10-18T17:32:13.115Z,14.62
2017-10-18T17:34:42.213Z,14.55
2017-10-18T17:37:11.303Z,14.49
2017-10-18T17:39:40.376Z,14.42
2017-10-18T17:42:08.715Z,14.39
2017-10-18T17:44:37.017Z,14.30
2017-10-18T17:47:05.332Z,14.18
2017-10-18T17:49:34.421Z,14.07
2017-10-18T17:52:02.744Z,13.93
2017-10-18T17:54:31.057Z,13.81
2017-10-18T17:56:59.393Z,13.74
2017-10-18T17:59:27.753Z,13.65
2017-10-18T18:01:56.830Z,13.57
2017-10-18T18:04:25.138Z,13.53
2017-10-18T18:06:53.469Z,13.58
2017-10-18T18:09:21.796Z,13.60
2017-10-18T18:11:50.134Z,13.59
2017-10-18T18:14:18.446Z,13.55
2017-10-18T18:16:46.749Z,13.44
2017-10-18T18:19:15.069Z,13.23
2017-10-18T18:21:44.164Z,13.06
2017-10-18T18:24:12.474Z,12.96
2017-10-18T18:26:40.782Z,13.04
2017-10-18T18:29:09.097Z,13.05
2017-10-18T18:31:37.513Z,13.06
2017-10-18T18:34:05.829Z,13.09
2017-10-18T18:36:34.746Z,13.06
2017-10-18T18:39:03.071Z,13.01
2017-10-18T18:41:31.388Z,12.94
2017-10-18T18:43:59.707Z,12.88
2017-10-18T18:46:28.010Z,12.85
2017-10-18T18:48:56.326Z,12.77
2017-10-18T18:51:24.637Z,12.73
2017-10-18T18:53:53.129Z,12.75
2017-10-18T18:56:21.457Z,12.68
2017-10-18T18:58:49.766Z,12.70
2017-10-18T19:01:18.834Z,12.67
2017-10-18T19:03:47.145Z,12.60
2017-10-18T19:06:15.456Z,12.59
2017-10-18T19:08:43.773Z,12.58
2017-10-18T19:11:12.077Z,12.53
2017-10-18T19:13:40.397Z,12.55
2017-10-18T19:16:08.707Z,12.55
2017-10-18T19:18:37.792Z,12.53
2017-10-18T19:21:06.097Z,12.54
2017-10-18T19:23:35.179Z,12.62
2017-10-18T19:26:04.258Z,12.60
2017-10-18T19:28:32.588Z,12.64
2017-10-18T19:31:00.911Z,12.64
2017-10-18T19:33:29.217Z,12.67
2017-10-18T19:35:58.336Z,12.59
2017-10-18T19:38:26.637Z,12.55
2017-10-18T19:40:54.960Z,12.49
2017-10-18T19:43:24.029Z,12.45
2017-10-18T19:45:52.344Z,12.38
2017-10-18T19:48:21.408Z,12.31
2017-10-18T19:50:49.717Z,12.24
2017-10-18T19:53:18.022Z,12.24
2017-10-18T19:55:46.333Z,12.20
2017-10-18T19:58:14.642Z,12.17
2017-10-18T20:00:43.725Z,12.13
2017-10-18T20:03:12.861Z,12.05
2017-10-18T20:05:41.179Z,12.01
2017-10-18T20:08:09.496Z,11.96
2017-10-18T20:10:37.812Z,11.92
2017-10-18T20:13:06.129Z,11.91
2017-10-18T20:15:34.445Z,11.87
2017-10-18T20:18:02.768Z,11.85
2017-10-18T20:20:31.099Z,11.79
2017-10-18T20:22:59.409Z,11.77
2017-10-18T20:25:27.738Z,11.77
2017-10-18T20:27:56.046Z,11.79
2017-10-18T20:30:24.358Z,11.83
2017-10-18T20:32:52.663Z,11.80
2017-10-18T20:35:21.769Z,11.72
2017-10-18T20:37:50.077Z,11.58
2017-10-18T20:40:18.386Z,11.50
2017-10-18T20:42:46.700Z,11.52
2017-10-18T20:45:15.011Z,11.56
2017-10-18T20:47:43.360Z,11.54
2017-10-18T20:50:11.657Z,11.49
2017-10-18T20:52:39.966Z,11.48
2017-10-18T20:55:08.264Z,11.42
2017-10-18T20:57:37.341Z,11.35
2017-10-18T21:00:05.649Z,11.30
2017-10-18T21:02:34.729Z,11.27
2017-10-18T21:05:03.830Z,11.26
2017-10-18T21:07:32.909Z,11.22
2017-10-18T21:10:01.210Z,11.17
2017-10-18T21:12:30.289Z,11.15
2017-10-18T21:14:58.593Z,11.14
2017-10-18T21:17:26.910Z,11.17
2017-10-18T21:19:55.210Z,11.18
2017-10-18T21:22:23.528Z,11.15
2017-10-18T21:24:51.823Z,11.15
2017-10-18T21:27:20.846Z,11.14
2017-10-18T21:29:49.145Z,11.12
2017-10-18T21:32:17.453Z,11.21
2017-10-18T21:34:45.761Z,11.21
2017-10-18T21:37:14.081Z,11.18
2017-10-18T21:39:43.152Z,11.13
2017-10-18T21:42:11.466Z,11.11
2017-10-18T21:44:39.774Z,11.14
2017-10-18T21:47:08.090Z,11.15
2017-10-18T21:49:36.401Z,11.11
2017-10-18T21:52:05.481Z,11.12
2017-10-18T21:54:34.556Z,11.10
2017-10-18T21:57:02.856Z,11.05
2017-10-18T21:59:31.929Z,10.99
2017-10-18T22:02:00.230Z,10.97
2017-10-18T22:04:29.309Z,10.96
2017-10-18T22:06:57.622Z,11.03
2017-10-18T22:09:25.940Z,11.03
2017-10-18T22:11:54.238Z,10.96
2017-10-18T22:14:22.545Z,10.94
2017-10-18T22:16:50.853Z,10.90
2017-10-18T22:19:19.165Z,10.83
2017-10-18T22:21:47.472Z,10.76
2017-10-18T22:24:16.551Z,10.65
2017-10-18T22:26:44.861Z,10.66
2017-10-18T22:29:13.170Z,10.56
2017-10-18T22:31:41.473Z,10.40
2017-10-18T22:34:09.794Z,10.22
2017-10-18T22:36:38.091Z,10.23
2017-10-18T22:39:06.397Z,10.26
2017-10-18T22:41:34.707Z,10.35
2017-10-18T22:44:03.781Z,10.41
2017-10-18T22:46:32.857Z,10.49
2017-10-18T22:49:01.169Z,10.51
2017-10-18T22:51:30.238Z,10.45
2017-10-18T22:53:58.545Z,10.40
2017-10-18T22:56:27.605Z,10.38
2017-10-18T22:58:55.922Z,10.33
2017-10-18T23:01:24.994Z,10.25
2017-10-18T23:03:53.320Z,10.28
2017-10-18T23:06:21.635Z,10.32
2017-10-18T23:08:49.971Z,10.18
2017-10-18T23:11:18.290Z,10.25
2017-10-18T23:13:46.624Z,10.34
2017-10-18T23:16:14.929Z,10.42
2017-10-18T23:18:43.250Z,10.52
2017-10-18T23:21:12.378Z,10.49
2017-10-18T23:23:40.689Z,10.51
2017-10-18T23:26:08.989Z,10.55
2017-10-18T23:28:38.089Z,10.65
2017-10-18T23:31:07.223Z,10.77
2017-10-18T23:33:35.537Z,10.82
2017-10-18T23:36:03.847Z,10.75
2017-10-18T23:38:32.933Z,10.69
2017-10-18T23:41:02.014Z,10.60
2017-10-18T23:43:30.346Z,10.64
2017-10-18T23:45:58.649Z,10.55
2017-10-18T23:48:26.961Z,10.59
2017-10-18T23:50:56.058Z,10.64
2017-10-18T23:53:25.157Z,10.64
2017-10-18T23:55:54.228Z,10.69
2017-10-18T23:58:22.537Z,10.72
